Time;durP1;ratioP1;P1;durP2;ratioP2;P2;SDS_P1;SDS_P2;PMS_P1;PMS_P2;Temp;Humidity;BMP_temperature;BMP_pressure;BME280_temperature;BME280_humidity;BME280_pressure;Samples;Min_cycle;Max_cycle;Signal;HPM_P1;HPM_P2
2022/03/09 00:00:08;;;;;;;13.35;7.13;;;6.00;47.60;;;;;;5113806;28;20028;-65
2022/03/09 00:02:34;;;;;;;14.18;7.22;;;6.00;47.80;;;;;;5113483;28;20028;-65
2022/03/09 00:05:00;;;;;;;12.70;6.90;;;6.00;47.20;;;;;;5113709;28;20036;-65
2022/03/09 00:07:27;;;;;;;12.77;7.07;;;6.00;47.30;;;;;;5113600;28;20028;-65
2022/03/09 00:09:53;;;;;;;14.65;7.95;;;5.90;47.40;;;;;;5113641;28;20375;-65
2022/03/09 00:12:19;;;;;;;13.90;6.85;;;5.80;47.40;;;;;;5113616;28;20031;-65
2022/03/09 00:14:45;;;;;;;12.55;7.13;;;5.80;47.90;;;;;;5113579;28;20024;-65
2022/03/09 00:17:11;;;;;;;13.25;7.25;;;5.80;47.90;;;;;;5113560;28;20027;-65
2022/03/09 00:19:36;;;;;;;12.18;7.15;;;5.90;47.70;;;;;;5113512;28;20050;-65
2022/03/09 00:22:02;;;;;;;14.85;7.35;;;5.80;47.90;;;;;;5113508;28;20087;-65
2022/03/09 00:24:28;;;;;;;12.25;6.97;;;5.70;48.50;;;;;;5113388;28;20032;-65
2022/03/09 00:26:53;;;;;;;13.73;7.50;;;5.60;48.70;;;;;;5113408;28;20035;-65
2022/03/09 00:29:19;;;;;;;15.60;7.13;;;5.60;49.30;;;;;;5113342;28;20024;-65
2022/03/09 00:31:45;;;;;;;14.45;7.43;;;5.50;49.00;;;;;;5113373;28;20028;-65
2022/03/09 00:34:10;;;;;;;13.52;7.45;;;5.50;49.00;;;;;;5095609;28;20024;-65
2022/03/09 00:36:36;;;;;;;14.52;7.50;;;5.40;49.10;;;;;;5113342;28;20031;-65
2022/03/09 00:39:03;;;;;;;16.95;7.57;;;5.40;49.30;;;;;;5113315;28;20032;-65
2022/03/09 00:41:29;;;;;;;15.63;7.75;;;5.40;49.50;;;;;;5113305;28;20021;-65
2022/03/09 00:43:55;;;;;;;16.38;8.07;;;5.30;49.10;;;;;;5113270;28;20042;-65
2022/03/09 00:46:20;;;;;;;14.40;7.97;;;5.30;49.00;;;;;;5113253;28;20020;-65
2022/03/09 00:48:46;;;;;;;14.13;7.18;;;5.30;48.60;;;;;;5113154;28;20036;-65
2022/03/09 00:51:11;;;;;;;13.30;7.57;;;5.30;49.60;;;;;;5113191;28;20028;-65
2022/03/09 00:53:38;;;;;;;13.60;7.65;;;5.40;48.60;;;;;;5113193;28;20024;-65
2022/03/09 00:56:04;;;;;;;11.73;6.88;;;5.50;48.30;;;;;;5113005;28;20048;-65
2022/03/09 00:58:29;;;;;;;16.77;8.25;;;5.60;48.00;;;;;;5113159;28;20031;-65
2022/03/09 01:00:55;;;;;;;16.45;7.93;;;5.60;47.60;;;;;;5113115;28;20032;-65
2022/03/09 01:03:21;;;;;;;14.32;7.95;;;5.60;48.10;;;;;;5113231;28;20035;-65
2022/03/09 01:05:46;;;;;;;15.50;7.97;;;5.60;48.10;;;;;;5113106;28;20028;-65
2022/03/09 01:08:12;;;;;;;15.73;8.13;;;5.60;48.20;;;;;;5113001;28;20036;-65
2022/03/09 01:10:38;;;;;;;14.38;8.27;;;5.60;48.00;;;;;;5113044;28;20039;-65
2022/03/09 01:13:03;;;;;;;14.15;8.00;;;5.60;47.90;;;;;;5113628;28;20036;-65
2022/03/09 01:15:30;;;;;;;14.18;8.10;;;5.60;47.70;;;;;;5116911;28;20028;-65
2022/03/09 01:17:55;;;;;;;15.13;7.68;;;5.60;47.60;;;;;;5116838;28;20020;-66
2022/03/09 01:20:21;;;;;;;14.48;7.65;;;5.70;47.50;;;;;;5116833;28;20031;-65
2022/03/09 01:22:47;;;;;;;13.93;7.88;;;5.70;47.30;;;;;;5116763;28;20024;-65
2022/03/09 01:25:12;;;;;;;14.85;7.88;;;5.60;47.60;;;;;;5116659;28;20084;-65
2022/03/09 01:27:38;;;;;;;15.52;8.15;;;5.50;48.50;;;;;;5116624;28;20036;-65
2022/03/09 01:30:05;;;;;;;15.95;8.35;;;5.30;48.90;;;;;;5116629;28;20032;-65
2022/03/09 01:32:31;;;;;;;16.65;8.43;;;5.30;49.00;;;;;;5116591;28;20031;-65
2022/03/09 01:34:57;;;;;;;15.68;7.72;;;5.30;49.00;;;;;;5116546;28;20008;-65
2022/03/09 01:37:22;;;;;;;16.92;8.18;;;5.20;49.00;;;;;;5116495;28;20440;-65
2022/03/09 01:39:48;;;;;;;17.17;8.10;;;5.20;49.10;;;;;;5116435;28;20031;-65
2022/03/09 01:42:14;;;;;;;15.88;8.10;;;5.20;49.30;;;;;;5116420;28;20031;-65
2022/03/09 01:44:39;;;;;;;13.68;8.15;;;5.20;49.40;;;;;;5116365;28;20032;-65
2022/03/09 01:47:05;;;;;;;14.93;8.00;;;5.20;49.70;;;;;;5116332;28;20020;-65
2022/03/09 01:49:31;;;;;;;13.82;8.10;;;5.10;49.90;;;;;;5116219;28;20111;-65
2022/03/09 01:52:00;;;;;;;14.85;7.43;;;5.10;50.60;;;;;;5116210;28;20020;-65
2022/03/09 01:54:27;;;;;;;15.00;7.88;;;5.00;49.70;;;;;;5115996;28;20139;-66
2022/03/09 01:56:53;;;;;;;15.95;7.75;;;5.00;49.90;;;;;;5116153;28;20024;-65
2022/03/09 01:59:19;;;;;;;19.25;8.93;;;4.90;49.80;;;;;;5116068;28;20095;-65
2022/03/09 02:01:46;;;;;;;16.27;8.50;;;4.90;50.00;;;;;;5116005;28;20470;-65
2022/03/09 02:04:12;;;;;;;17.75;7.93;;;4.90;49.80;;;;;;5115976;28;20034;-65
2022/03/09 02:06:39;;;;;;;15.88;7.93;;;4.90;49.70;;;;;;5115949;28;20024;-65
2022/03/09 02:11:53;;;;;;;15.77;8.10;;;4.80;50.00;;;;;;5115984;28;20028;-65
2022/03/09 02:14:46;;;;;;;14.45;7.95;;;4.90;49.90;;;;;;5115815;28;20020;-65
2022/03/09 02:17:17;;;;;;;18.58;7.97;;;4.90;49.50;;;;;;5113028;28;20059;-65
2022/03/09 02:19:45;;;;;;;14.38;7.78;;;5.00;49.50;;;;;;5115712;28;20035;-65
2022/03/09 02:22:20;;;;;;;14.73;7.65;;;5.00;49.30;;;;;;5115628;28;20020;-65
2022/03/09 02:24:51;;;;;;;15.68;8.18;;;5.00;49.20;;;;;;5115467;28;20027;-65
2022/03/09 02:27:20;;;;;;;16.77;8.70;;;4.90;49.30;;;;;;5115640;28;20020;-65
2022/03/09 02:29:47;;;;;;;17.90;8.80;;;4.80;49.40;;;;;;5115468;28;20054;-65
2022/03/09 02:32:12;;;;;;;15.10;8.25;;;4.80;49.40;;;;;;5115493;28;20278;-65
2022/03/09 02:34:38;;;;;;;15.68;8.20;;;4.80;49.40;;;;;;5115417;28;20050;-65
2022/03/09 02:37:04;;;;;;;15.73;7.97;;;4.90;49.60;;;;;;5115355;28;20024;-65
2022/03/09 02:39:30;;;;;;;15.98;7.45;;;4.90;49.40;;;;;;5115298;28;20079;-65
2022/03/09 02:41:55;;;;;;;16.13;8.48;;;4.90;49.10;;;;;;5115364;28;20054;-65
2022/03/09 02:44:21;;;;;;;15.02;8.10;;;5.00;49.20;;;;;;5115214;28;20024;-65
2022/03/09 02:46:47;;;;;;;13.73;7.97;;;5.10;49.10;;;;;;5115176;28;20435;-65
2022/03/09 02:49:12;;;;;;;17.42;8.90;;;5.10;49.10;;;;;;5115008;28;20032;-65
2022/03/09 02:51:38;;;;;;;14.20;8.13;;;5.00;49.20;;;;;;5115042;28;20028;-65
2022/03/09 02:54:04;;;;;;;15.05;8.13;;;4.90;49.40;;;;;;5115003;28;20028;-65
2022/03/09 02:56:29;;;;;;;18.15;8.55;;;4.80;50.00;;;;;;5114711;28;20051;-65
2022/03/09 02:58:55;;;;;;;16.30;8.07;;;4.60;50.60;;;;;;5114960;28;20039;-65
2022/03/09 03:01:21;;;;;;;18.83;8.20;;;4.50;50.50;;;;;;5097003;28;20032;-65
2022/03/09 03:03:46;;;;;;;14.23;7.70;;;4.40;50.80;;;;;;5114786;28;20054;-65
2022/03/09 03:06:13;;;;;;;17.85;8.07;;;4.30;51.30;;;;;;5114888;28;20043;-65
2022/03/09 03:08:39;;;;;;;16.95;8.40;;;4.30;51.10;;;;;;5114657;28;20055;-65
2022/03/09 03:11:07;;;;;;;17.08;8.40;;;4.40;51.10;;;;;;5096717;28;20024;-65
2022/03/09 03:13:32;;;;;;;14.00;7.97;;;4.30;51.50;;;;;;5114652;28;20031;-65
2022/03/09 03:15:58;;;;;;;12.57;6.97;;;4.20;51.60;;;;;;5114601;28;20016;-65
2022/03/09 03:18:23;;;;;;;16.13;7.68;;;4.20;52.00;;;;;;5114525;28;20040;-65
2022/03/09 03:20:54;;;;;;;13.20;7.72;;;4.10;52.10;;;;;;5114511;28;20032;-65
2022/03/09 03:23:21;;;;;;;16.20;8.38;;;4.20;52.60;;;;;;5114506;28;20077;-65
2022/03/09 03:25:47;;;;;;;15.48;8.18;;;4.20;52.50;;;;;;5114315;28;20031;-65
2022/03/09 03:28:12;;;;;;;15.55;8.05;;;4.20;52.60;;;;;;5114279;28;20028;-65
2022/03/09 03:30:38;;;;;;;13.77;7.53;;;4.10;53.50;;;;;;5114304;28;20051;-65
2022/03/09 03:33:04;;;;;;;19.58;7.95;;;4.10;53.00;;;;;;5114267;28;20033;-65
2022/03/09 03:35:30;;;;;;;14.45;8.07;;;4.10;53.00;;;;;;5113971;28;20116;-65
2022/03/09 03:37:55;;;;;;;17.02;8.57;;;4.10;53.30;;;;;;5114014;28;20028;-65
2022/03/09 03:40:21;;;;;;;15.52;8.13;;;4.20;52.10;;;;;;5114165;28;20036;-65
2022/03/09 03:42:47;;;;;;;16.90;8.25;;;4.30;51.70;;;;;;5114099;28;20036;-65
2022/03/09 03:45:12;;;;;;;16.35;8.52;;;4.40;51.20;;;;;;5114095;28;20032;-65
2022/03/09 03:47:38;;;;;;;17.20;8.52;;;4.50;51.00;;;;;;5113935;28;20028;-65
2022/03/09 03:50:04;;;;;;;17.02;8.70;;;4.40;51.30;;;;;;5113938;28;20027;-65
2022/03/09 03:52:30;;;;;;;17.70;8.52;;;4.30;51.30;;;;;;5113906;28;20020;-65
2022/03/09 03:54:56;;;;;;;15.93;8.50;;;4.20;51.50;;;;;;5113737;28;20143;-66
2022/03/09 03:57:21;;;;;;;16.75;7.70;;;4.10;51.80;;;;;;5113882;28;20059;-65
2022/03/09 03:59:47;;;;;;;16.83;7.68;;;4.00;52.10;;;;;;5113834;28;20092;-65
2022/03/09 04:02:12;;;;;;;19.20;9.02;;;4.00;52.40;;;;;;5095832;28;20032;-65
2022/03/09 04:04:38;;;;;;;18.23;8.68;;;3.90;52.70;;;;;;5113748;28;20028;-65
2022/03/09 04:07:04;;;;;;;19.50;8.88;;;3.90;52.50;;;;;;5113739;28;20035;-65
2022/03/09 04:09:29;;;;;;;17.40;8.35;;;3.90;52.50;;;;;;5113608;28;20024;-65
2022/03/09 04:11:55;;;;;;;16.67;7.93;;;3.80;52.60;;;;;;5113641;28;20039;-65
2022/03/09 04:14:22;;;;;;;17.45;8.73;;;3.80;52.80;;;;;;5113601;28;20024;-65
2022/03/09 04:16:48;;;;;;;18.25;8.68;;;3.80;53.10;;;;;;5113577;28;20076;-65
2022/03/09 04:19:14;;;;;;;14.05;8.13;;;3.70;53.40;;;;;;5113529;28;20055;-65
2022/03/09 04:21:40;;;;;;;19.58;8.70;;;3.70;53.90;;;;;;5113529;28;20085;-65
2022/03/09 04:24:06;;;;;;;16.48;8.55;;;3.70;53.80;;;;;;5113432;28;20056;-65
2022/03/09 04:26:32;;;;;;;17.65;8.38;;;3.70;53.60;;;;;;5113496;28;20035;-65
2022/03/09 04:28:59;;;;;;;16.73;8.18;;;3.80;53.40;;;;;;5113366;28;20024;-65
2022/03/09 04:31:25;;;;;;;17.88;8.68;;;3.90;53.10;;;;;;5095680;28;20113;-65
2022/03/09 04:33:50;;;;;;;15.45;8.02;;;3.90;52.70;;;;;;5113374;28;20044;-65
2022/03/09 04:36:16;;;;;;;16.50;8.43;;;4.00;52.50;;;;;;5113354;28;20036;-65
2022/03/09 04:38:41;;;;;;;16.40;8.02;;;4.00;52.50;;;;;;5113414;28;20032;-65
2022/03/09 04:41:07;;;;;;;14.93;7.70;;;4.00;52.40;;;;;;5113329;28;20028;-65
2022/03/09 04:43:33;;;;;;;15.13;7.45;;;4.00;52.40;;;;;;5113292;28;20028;-65
2022/03/09 04:45:59;;;;;;;18.85;8.50;;;4.00;52.50;;;;;;5113290;28;20032;-65
2022/03/09 04:48:25;;;;;;;14.43;7.07;;;4.00;52.50;;;;;;5114507;28;20020;-65
2022/03/09 04:50:50;;;;;;;17.58;8.13;;;4.00;52.40;;;;;;5117442;28;20020;-65
2022/03/09 04:53:16;;;;;;;17.27;8.55;;;4.00;52.30;;;;;;5117404;28;20107;-65
2022/03/09 04:55:42;;;;;;;15.82;8.15;;;3.90;52.20;;;;;;5117180;28;20052;-65
2022/03/09 04:58:07;;;;;;;21.13;8.07;;;3.80;52.50;;;;;;5117278;28;20028;-65
2022/03/09 05:00:33;;;;;;;14.95;7.10;;;3.50;53.20;;;;;;5117248;28;20032;-65
2022/03/09 05:02:59;;;;;;;18.05;8.23;;;3.40;53.50;;;;;;5117182;28;20035;-65
2022/03/09 05:05:24;;;;;;;15.70;8.73;;;3.30;54.30;;;;;;5117136;28;20039;-65
2022/03/09 05:07:50;;;;;;;12.60;7.60;;;3.10;55.10;;;;;;5117023;28;20032;-65
2022/03/09 05:10:16;;;;;;;17.23;7.88;;;3.10;55.00;;;;;;5117057;28;20031;-65
2022/03/09 05:12:41;;;;;;;16.33;7.82;;;3.10;55.00;;;;;;5116987;28;20024;-65
2022/03/09 05:15:07;;;;;;;18.25;7.93;;;3.10;55.10;;;;;;5116978;28;20028;-65
2022/03/09 05:17:40;;;;;;;15.85;7.90;;;3.20;55.00;;;;;;5098895;28;20029;-65
2022/03/09 05:20:07;;;;;;;16.88;7.53;;;3.20;55.20;;;;;;5116901;28;20050;-65
2022/03/09 05:22:32;;;;;;;15.10;7.32;;;3.10;55.40;;;;;;5116740;28;20032;-65
2022/03/09 05:24:58;;;;;;;17.52;7.70;;;3.10;55.20;;;;;;5116692;28;20031;-65
2022/03/09 05:27:27;;;;;;;19.30;8.25;;;3.20;55.00;;;;;;5116737;28;20031;-65
2022/03/09 05:29:53;;;;;;;13.85;7.00;;;3.30;54.70;;;;;;5116684;28;20020;-65
2022/03/09 05:32:18;;;;;;;16.30;8.18;;;3.20;54.90;;;;;;5116614;28;20155;-65
2022/03/09 05:34:46;;;;;;;16.10;7.13;;;3.10;55.10;;;;;;5116537;28;20028;-65
2022/03/09 05:37:12;;;;;;;19.15;7.95;;;3.00;55.30;;;;;;5116549;28;20032;-65
2022/03/09 05:39:38;;;;;;;14.65;7.10;;;2.90;55.50;;;;;;5116514;28;20042;-65
2022/03/09 05:42:04;;;;;;;14.73;7.70;;;2.90;55.50;;;;;;5116465;28;20529;-65
2022/03/09 05:44:29;;;;;;;16.95;6.97;;;3.00;55.50;;;;;;5116414;28;20024;-65
2022/03/09 05:46:56;;;;;;;14.20;6.93;;;2.90;55.70;;;;;;5116255;28;20039;-65
2022/03/09 05:49:22;;;;;;;19.63;8.25;;;2.80;55.60;;;;;;5116216;28;20025;-66
2022/03/09 05:51:48;;;;;;;13.75;7.10;;;2.60;55.40;;;;;;5116265;28;20054;-65
2022/03/09 05:54:14;;;;;;;17.27;7.93;;;2.60;55.70;;;;;;5116220;28;20048;-65
2022/03/09 05:56:40;;;;;;;16.67;7.45;;;2.60;56.10;;;;;;5114984;28;20055;-65
2022/03/09 05:59:05;;;;;;;14.68;7.22;;;2.60;55.70;;;;;;5096557;28;20036;-65
2022/03/09 06:01:31;;;;;;;16.48;7.35;;;2.80;55.80;;;;;;5114908;28;20028;-65
2022/03/09 06:03:56;;;;;;;14.45;6.97;;;2.80;55.90;;;;;;5114902;28;20040;-65
2022/03/09 06:06:23;;;;;;;14.75;7.13;;;2.80;56.20;;;;;;5114877;28;20032;-65
2022/03/09 06:08:48;;;;;;;15.27;7.65;;;2.70;56.60;;;;;;5114711;28;20039;-65
2022/03/09 06:11:14;;;;;;;19.27;7.50;;;2.80;56.30;;;;;;5114767;28;20051;-65
2022/03/09 06:13:40;;;;;;;16.95;7.30;;;2.70;56.00;;;;;;5114726;28;20028;-65
2022/03/09 06:16:05;;;;;;;14.65;7.05;;;2.70;56.10;;;;;;5114677;28;20074;-65
2022/03/09 06:18:31;;;;;;;17.95;7.30;;;2.70;56.20;;;;;;5114678;28;20032;-65
2022/03/09 06:20:57;;;;;;;13.93;7.47;;;2.70;56.10;;;;;;5114559;28;20024;-65
2022/03/09 06:23:22;;;;;;;17.02;8.27;;;2.80;56.30;;;;;;5114550;28;20024;-65
2022/03/09 06:25:48;;;;;;;11.45;6.72;;;2.80;56.20;;;;;;5114466;28;20089;-65
2022/03/09 06:28:15;;;;;;;17.50;7.35;;;2.80;56.20;;;;;;5114361;28;20036;-63
2022/03/09 06:30:40;;;;;;;18.25;7.47;;;2.90;56.10;;;;;;5114477;28;20020;-65
2022/03/09 06:33:06;;;;;;;18.25;7.40;;;2.90;56.30;;;;;;5114373;28;20043;-63
2022/03/09 06:35:32;;;;;;;17.02;7.53;;;2.80;56.50;;;;;;5114343;28;20012;-63
2022/03/09 06:37:58;;;;;;;13.90;7.63;;;2.80;56.60;;;;;;5114290;28;20028;-63
2022/03/09 06:40:25;;;;;;;13.70;7.65;;;2.90;56.60;;;;;;5114222;28;20028;-65
2022/03/09 06:42:51;;;;;;;15.35;6.85;;;2.90;56.80;;;;;;5114254;28;20027;-65
2022/03/09 06:45:17;;;;;;;19.10;7.45;;;3.00;56.50;;;;;;5114187;28;20039;-63
2022/03/09 06:47:43;;;;;;;14.23;7.07;;;3.10;56.40;;;;;;5114007;28;20024;-63
2022/03/09 06:50:09;;;;;;;16.52;7.72;;;3.10;56.30;;;;;;5114029;28;20079;-64
2022/03/09 06:52:35;;;;;;;13.95;7.03;;;3.20;56.20;;;;;;5113969;28;20032;-63
2022/03/09 06:55:03;;;;;;;14.10;6.87;;;3.20;56.20;;;;;;5073771;28;1136913;-66
2022/03/09 06:57:32;;;;;;;14.52;6.40;;;3.20;56.10;;;;;;5114953;28;20035;-63
2022/03/09 06:59:59;;;;;;;15.68;7.38;;;3.30;56.20;;;;;;5114879;28;20088;-65
2022/03/09 07:02:25;;;;;;;14.32;7.13;;;3.30;56.00;;;;;;5114740;28;20088;-64
2022/03/09 07:04:51;;;;;;;17.33;8.00;;;3.40;55.80;;;;;;5114832;28;20024;-65
2022/03/09 07:07:17;;;;;;;16.80;7.25;;;3.40;55.90;;;;;;5114692;28;20024;-63
2022/03/09 07:09:43;;;;;;;14.13;6.90;;;3.40;55.80;;;;;;5114634;28;20028;-64
2022/03/09 07:12:09;;;;;;;15.75;8.00;;;3.40;55.70;;;;;;5113859;28;20026;-64
2022/03/09 07:14:34;;;;;;;14.43;7.07;;;3.50;55.70;;;;;;5114714;28;20029;-65
2022/03/09 07:17:00;;;;;;;17.33;8.00;;;3.50;55.80;;;;;;5114588;28;20054;-64
2022/03/09 07:19:26;;;;;;;16.45;7.22;;;3.60;56.00;;;;;;5114592;28;20048;-64
2022/03/09 07:21:53;;;;;;;13.40;7.22;;;3.60;56.00;;;;;;5114462;28;20079;-64
2022/03/09 07:24:20;;;;;;;16.13;8.45;;;3.60;56.30;;;;;;5114389;28;20027;-65
2022/03/09 07:26:46;;;;;;;15.65;7.75;;;3.60;56.10;;;;;;5114352;28;20035;-65
2022/03/09 07:29:12;;;;;;;16.95;7.55;;;3.70;56.00;;;;;;5114304;28;20032;-65
2022/03/09 07:31:38;;;;;;;18.83;7.88;;;3.80;56.00;;;;;;5114313;28;20031;-65
2022/03/09 07:34:04;;;;;;;21.20;7.90;;;3.80;56.20;;;;;;5114269;28;20016;-65
2022/03/09 07:36:30;;;;;;;13.77;7.55;;;3.90;56.10;;;;;;5114235;28;20066;-65
2022/03/09 07:38:55;;;;;;;15.95;6.95;;;3.90;56.40;;;;;;5114184;28;20036;-65
2022/03/09 07:41:21;;;;;;;18.13;8.10;;;3.90;57.20;;;;;;5114123;28;20038;-65
2022/03/09 07:43:47;;;;;;;17.67;8.15;;;3.90;57.40;;;;;;5114088;28;20040;-65
2022/03/09 07:46:13;;;;;;;14.90;7.75;;;3.90;58.10;;;;;;5114055;28;20053;-65
2022/03/09 07:48:39;;;;;;;16.70;8.60;;;3.90;57.50;;;;;;5113958;28;20032;-65
2022/03/09 07:51:04;;;;;;;15.75;8.13;;;4.00;58.10;;;;;;5113960;28;20024;-65
2022/03/09 07:53:30;;;;;;;15.48;7.28;;;3.90;58.30;;;;;;5113877;28;20024;-65
2022/03/09 07:55:56;;;;;;;18.13;8.07;;;4.00;58.20;;;;;;5113692;28;20050;-65
2022/03/09 07:58:21;;;;;;;17.08;8.25;;;4.00;58.30;;;;;;5113849;28;20032;-65
2022/03/09 08:00:47;;;;;;;16.38;8.70;;;4.10;58.30;;;;;;5113665;28;20024;-65
2022/03/09 08:03:13;;;;;;;15.27;7.75;;;4.10;58.50;;;;;;5113672;28;20039;-65
2022/03/09 08:05:38;;;;;;;16.70;7.90;;;4.20;58.10;;;;;;5113718;28;20028;-65
2022/03/09 08:08:04;;;;;;;16.95;8.35;;;4.20;58.10;;;;;;5113523;28;20032;-66
2022/03/09 08:10:30;;;;;;;15.68;8.23;;;4.30;57.70;;;;;;5113552;28;20028;-65
2022/03/09 08:12:55;;;;;;;18.70;7.90;;;4.30;58.60;;;;;;5095676;28;20028;-65
2022/03/09 08:15:21;;;;;;;14.43;7.75;;;4.40;57.70;;;;;;5113551;28;20088;-65
2022/03/09 08:17:47;;;;;;;15.70;7.18;;;4.50;57.90;;;;;;5113561;28;20027;-65
2022/03/09 08:20:13;;;;;;;16.63;7.68;;;4.60;57.00;;;;;;5113558;28;20032;-65
2022/03/09 08:22:39;;;;;;;16.67;8.35;;;4.70;56.30;;;;;;5095442;28;20020;-65
2022/03/09 08:25:06;;;;;;;12.90;6.93;;;4.90;57.60;;;;;;5113334;28;20028;-65
2022/03/09 08:27:32;;;;;;;12.65;6.47;;;5.00;57.70;;;;;;5113366;28;20106;-65
2022/03/09 08:29:58;;;;;;;15.25;6.68;;;5.20;54.80;;;;;;5113408;28;20039;-65
2022/03/09 08:32:24;;;;;;;15.40;6.53;;;5.30;55.40;;;;;;5095510;28;20035;-66
2022/03/09 08:34:50;;;;;;;14.07;6.88;;;5.40;53.30;;;;;;5113366;28;20021;-65
2022/03/09 08:37:16;;;;;;;14.90;7.00;;;5.50;52.80;;;;;;5078781;28;20130;-65
2022/03/09 08:39:43;;;;;;;13.80;6.88;;;5.70;54.00;;;;;;5113306;28;20032;-65
2022/03/09 08:42:09;;;;;;;13.82;7.25;;;5.90;52.70;;;;;;5113225;28;20076;-65
2022/03/09 08:44:35;;;;;;;14.02;6.47;;;6.00;51.60;;;;;;5113095;28;20043;-65
2022/03/09 08:47:01;;;;;;;13.57;6.47;;;6.10;51.10;;;;;;5113235;28;20035;-65
2022/03/09 08:49:27;;;;;;;12.50;6.43;;;6.20;50.20;;;;;;5113142;28;20036;-66
2022/03/09 08:51:53;;;;;;;12.38;6.05;;;6.40;50.00;;;;;;5095274;28;20020;-65
2022/03/09 08:54:18;;;;;;;12.98;6.72;;;6.40;49.10;;;;;;5095385;28;20031;-66
2022/03/09 08:56:44;;;;;;;13.50;6.95;;;6.50;49.20;;;;;;5112984;28;20056;-66
2022/03/09 08:59:09;;;;;;;17.17;6.95;;;6.60;50.30;;;;;;5095352;28;20032;-66
2022/03/09 09:01:35;;;;;;;16.55;7.72;;;6.80;49.00;;;;;;5113097;28;20032;-66
2022/03/09 09:04:01;;;;;;;11.10;5.75;;;7.00;48.80;;;;;;5113033;28;20024;-66
2022/03/09 09:06:26;;;;;;;14.35;7.45;;;7.00;49.20;;;;;;5113086;28;20031;-66
2022/03/09 09:08:52;;;;;;;13.35;6.95;;;7.20;48.90;;;;;;5112979;28;20028;-66
2022/03/09 09:11:17;;;;;;;15.05;7.70;;;7.30;47.70;;;;;;5112979;28;20033;-66
2022/03/09 09:13:43;;;;;;;15.52;6.18;;;7.40;47.10;;;;;;5112973;28;20028;-66
2022/03/09 09:16:09;;;;;;;14.50;7.38;;;7.50;46.40;;;;;;5112994;28;20031;-66
2022/03/09 09:18:34;;;;;;;14.32;7.63;;;7.60;45.50;;;;;;5112902;28;20048;-66
2022/03/09 09:21:00;;;;;;;14.25;7.05;;;7.70;45.40;;;;;;5112967;28;20058;-66
2022/03/09 09:23:26;;;;;;;13.73;6.47;;;7.70;45.60;;;;;;5112917;28;20020;-66
2022/03/09 09:25:52;;;;;;;14.52;6.38;;;7.90;45.10;;;;;;5112836;28;20029;-66
2022/03/09 09:28:17;;;;;;;16.45;6.75;;;7.90;44.80;;;;;;5112865;28;20032;-66
2022/03/09 09:30:44;;;;;;;16.63;6.88;;;8.00;44.90;;;;;;5112995;28;20035;-66
2022/03/09 09:33:09;;;;;;;16.77;6.93;;;8.10;45.40;;;;;;5112825;28;20035;-66
2022/03/09 09:35:35;;;;;;;14.05;8.02;;;8.10;44.50;;;;;;5115821;28;20047;-66
2022/03/09 09:38:06;;;;;;;14.90;7.05;;;8.30;45.20;;;;;;5116510;28;20032;-65
2022/03/09 09:40:34;;;;;;;15.40;7.45;;;8.40;43.80;;;;;;5116571;28;20067;-66
2022/03/09 09:43:01;;;;;;;14.43;6.75;;;8.50;43.90;;;;;;5116387;28;20044;-66
2022/03/09 09:45:27;;;;;;;16.75;7.30;;;8.60;43.30;;;;;;5116416;28;20027;-66
2022/03/09 09:47:52;;;;;;;17.25;7.63;;;8.50;43.00;;;;;;5116230;28;20016;-66
2022/03/09 09:50:18;;;;;;;13.20;6.97;;;8.60;42.50;;;;;;5116316;28;20050;-66
2022/03/09 09:52:44;;;;;;;16.42;7.07;;;8.70;42.50;;;;;;5116268;28;20032;-66
2022/03/09 09:55:10;;;;;;;16.42;7.32;;;8.70;43.90;;;;;;5115910;28;20072;-66
2022/03/09 09:57:36;;;;;;;13.77;6.85;;;8.70;41.60;;;;;;5116125;28;20035;-66
2022/03/09 10:00:04;;;;;;;17.30;7.85;;;8.80;41.30;;;;;;5116054;28;20031;-65
2022/03/09 10:02:30;;;;;;;15.88;8.32;;;8.90;42.30;;;;;;5116064;28;20080;-64
2022/03/09 10:04:56;;;;;;;16.02;8.43;;;9.00;42.20;;;;;;5114641;28;20042;-65
2022/03/09 10:07:22;;;;;;;14.90;7.65;;;9.20;42.50;;;;;;5114890;28;20020;-65
2022/03/09 10:09:47;;;;;;;15.25;8.15;;;9.30;41.10;;;;;;5115261;28;20056;-65
2022/03/09 10:12:13;;;;;;;14.35;7.35;;;9.50;41.90;;;;;;5115811;28;20050;-65
2022/03/09 10:14:41;;;;;;;16.05;8.25;;;9.60;40.00;;;;;;5114567;28;20035;-65
2022/03/09 10:17:15;;;;;;;18.30;7.85;;;9.60;40.10;;;;;;5114881;28;20017;-65
2022/03/09 10:19:46;;;;;;;14.75;7.22;;;9.70;38.90;;;;;;5115747;28;20112;-64
2022/03/09 10:22:34;;;;;;;14.95;7.88;;;9.80;40.20;;;;;;5115759;28;20027;-65
2022/03/09 10:25:16;;;;;;;14.07;7.72;;;9.80;39.50;;;;;;5115640;28;20028;-64
2022/03/09 10:27:47;;;;;;;16.40;7.90;;;9.90;39.60;;;;;;5115661;28;20020;-64
2022/03/09 10:30:36;;;;;;;19.48;8.38;;;10.10;40.10;;;;;;5115650;28;20039;-65
2022/03/09 10:33:10;;;;;;;16.88;9.02;;;10.20;40.10;;;;;;5113914;28;20045;-65
2022/03/09 10:35:49;;;;;;;17.05;8.43;;;10.30;40.30;;;;;;5114136;28;20023;-65
2022/03/09 10:38:14;;;;;;;15.05;8.13;;;10.40;39.70;;;;;;5115349;28;20047;-65
2022/03/09 10:40:46;;;;;;;13.63;8.23;;;10.40;39.60;;;;;;5115356;28;20024;-65
2022/03/09 10:43:20;;;;;;;15.40;6.60;;;10.40;39.20;;;;;;5115286;28;20049;-65
2022/03/09 10:46:12;;;;;;;17.23;7.95;;;10.40;39.60;;;;;;5114022;28;20032;-65
2022/03/09 10:48:55;;;;;;;17.60;9.00;;;10.40;39.30;;;;;;5115179;28;20043;-65
2022/03/09 10:51:38;;;;;;;15.30;7.90;;;10.50;38.70;;;;;;5114911;28;20016;-65
2022/03/09 10:54:11;;;;;;;18.83;8.73;;;10.60;38.70;;;;;;5114141;28;20080;-65
2022/03/09 10:56:37;;;;;;;18.77;10.07;;;10.70;39.20;;;;;;5113633;28;20068;-65
2022/03/09 10:59:14;;;;;;;16.88;8.52;;;10.90;39.40;;;;;;5114926;28;20031;-65
2022/03/09 11:01:42;;;;;;;18.25;8.27;;;11.00;39.10;;;;;;5114916;28;20025;-65
2022/03/09 11:04:11;;;;;;;19.08;9.43;;;11.10;38.80;;;;;;5114326;28;20046;-65
2022/03/09 11:06:42;;;;;;;17.55;8.45;;;11.20;39.00;;;;;;5113897;28;20024;-65
2022/03/09 11:09:09;;;;;;;19.63;9.02;;;11.20;38.10;;;;;;5114682;28;20028;-65
2022/03/09 11:11:38;;;;;;;16.83;9.15;;;11.30;37.60;;;;;;5114620;28;20091;-65
2022/03/09 11:14:04;;;;;;;18.42;9.90;;;11.30;37.60;;;;;;5097198;28;20080;-65
2022/03/09 11:16:31;;;;;;;19.15;9.85;;;11.30;37.80;;;;;;5114596;28;20028;-65
2022/03/09 11:18:57;;;;;;;19.33;10.20;;;11.40;37.20;;;;;;5114583;28;20028;-65
2022/03/09 11:21:23;;;;;;;15.38;8.48;;;11.50;38.20;;;;;;5096605;28;20030;-66
2022/03/09 11:23:50;;;;;;;18.25;9.38;;;11.60;38.80;;;;;;5096517;28;20028;-65
2022/03/09 11:26:28;;;;;;;19.15;10.13;;;11.60;38.10;;;;;;5080249;28;20027;-65
2022/03/09 11:29:02;;;;;;;17.58;8.07;;;11.80;37.50;;;;;;5114369;28;20028;-65
2022/03/09 11:31:48;;;;;;;17.92;9.00;;;11.80;37.10;;;;;;5114382;28;20028;-65
2022/03/09 11:34:41;;;;;;;22.40;9.88;;;11.80;37.40;;;;;;5114245;28;20048;-65
2022/03/09 11:37:11;;;;;;;21.77;10.50;;;11.90;37.20;;;;;;5114190;28;20008;-65
2022/03/09 11:39:58;;;;;;;22.17;11.23;;;12.00;37.30;;;;;;5114339;28;20092;-65
2022/03/09 11:42:28;;;;;;;17.83;9.73;;;12.10;36.90;;;;;;5112766;28;20036;-64
2022/03/09 11:45:14;;;;;;;20.42;10.48;;;12.10;37.20;;;;;;5113724;28;20020;-64
2022/03/09 11:48:03;;;;;;;27.63;11.65;;;12.30;36.90;;;;;;5113830;28;20034;-64
2022/03/09 11:50:34;;;;;;;18.85;10.55;;;12.40;36.00;;;;;;5114141;28;20023;-64
2022/03/09 11:53:05;;;;;;;21.13;9.43;;;12.40;36.50;;;;;;5114090;28;20054;-64
2022/03/09 11:55:33;;;;;;;23.50;10.40;;;12.40;36.60;;;;;;5113813;28;20072;-64
2022/03/09 11:57:58;;;;;;;22.00;10.85;;;12.60;36.20;;;;;;5113654;28;20031;-64
2022/03/09 12:00:24;;;;;;;22.92;11.40;;;12.70;37.60;;;;;;5113907;28;20083;-64
2022/03/09 12:02:57;;;;;;;24.88;11.95;;;12.70;35.20;;;;;;5113800;28;20028;-64
2022/03/09 12:05:25;;;;;;;25.35;11.13;;;12.80;35.20;;;;;;5113805;28;20020;-64
2022/03/09 12:07:52;;;;;;;27.00;11.88;;;12.70;35.20;;;;;;5113567;28;20086;-64
2022/03/09 12:10:22;;;;;;;23.98;12.40;;;12.80;35.30;;;;;;5113653;28;20027;-64
2022/03/09 12:13:12;;;;;;;25.35;12.77;;;12.90;35.50;;;;;;5113680;28;20020;-64
2022/03/09 12:16:03;;;;;;;23.33;12.27;;;13.10;35.20;;;;;;5106003;28;20040;-64
2022/03/09 12:18:35;;;;;;;25.13;12.02;;;13.10;34.60;;;;;;5113620;28;20039;-64
2022/03/09 12:21:00;;;;;;;25.35;12.63;;;13.20;34.50;;;;;;5113562;28;20032;-64
2022/03/09 12:23:26;;;;;;;27.48;12.70;;;13.20;33.80;;;;;;5113555;28;20074;-64
2022/03/09 12:25:53;;;;;;;32.72;15.05;;;13.20;34.40;;;;;;5113336;28;20052;-64
2022/03/09 12:28:25;;;;;;;32.47;12.18;;;13.30;34.10;;;;;;5113393;28;20028;-64
2022/03/09 12:31:15;;;;;;;26.52;12.48;;;13.30;34.70;;;;;;5113193;28;20043;-64
2022/03/09 12:33:42;;;;;;;24.10;11.00;;;13.30;35.30;;;;;;5113346;28;20016;-64
2022/03/09 12:36:11;;;;;;;27.92;13.23;;;13.50;35.20;;;;;;5113243;28;20044;-64
2022/03/09 12:38:40;;;;;;;28.50;14.10;;;13.50;33.40;;;;;;5113447;28;20084;-64
2022/03/09 12:41:30;;;;;;;33.03;14.70;;;13.50;34.40;;;;;;5113243;28;20052;-64
2022/03/09 12:44:06;;;;;;;30.27;13.95;;;13.50;32.70;;;;;;5113172;28;20046;-64
2022/03/09 12:46:34;;;;;;;32.40;14.07;;;13.70;34.30;;;;;;5113241;28;20482;-64